Time;durP1;ratioP1;P1;durP2;ratioP2;P2;SDS_P1;SDS_P2;PMS_P1;PMS_P2;Temp;Humidity;BMP_temperature;BMP_pressure;BME280_temperature;BME280_humidity;BME280_pressure;Samples;Min_cycle;Max_cycle;Signal;HPM_P1;HPM_P2
2023/10/10 00:04:38;;;;;;;14.35;9.23;;;16.60;99.90;;;;;;20771466;28;20520;-43
2023/10/10 00:14:39;;;;;;;13.95;9.77;;;16.50;99.90;;;;;;20765343;28;20076;-43
2023/10/10 00:24:39;;;;;;;16.08;11.13;;;16.40;99.90;;;;;;20772657;28;20041;-43
2023/10/10 00:34:40;;;;;;;18.45;15.20;;;16.30;99.90;;;;;;20781735;28;20064;-43
2023/10/10 00:44:41;;;;;;;19.63;13.40;;;16.40;99.90;;;;;;20782624;28;20045;-44
2023/10/10 00:54:45;;;;;;;21.67;14.47;;;16.30;99.90;;;;;;20778681;28;20033;-43
2023/10/10 01:14:57;;;;;;;27.65;17.08;;;16.10;99.90;;;;;;20777531;28;20057;-43
2023/10/10 01:24:58;;;;;;;27.92;19.50;;;15.90;99.90;;;;;;20772716;28;20037;-43
2023/10/10 01:35:01;;;;;;;35.67;23.38;;;15.80;99.90;;;;;;20778091;28;21054;-43
2023/10/10 01:45:07;;;;;;;43.00;26.45;;;15.80;99.90;;;;;;20772988;28;20034;-43
2023/10/10 01:55:10;;;;;;;40.13;25.33;;;15.90;99.90;;;;;;20766957;28;20365;-43
2023/10/10 02:05:11;;;;;;;42.10;26.40;;;15.80;99.90;;;;;;20761274;28;20397;-43
2023/10/10 02:15:15;;;;;;;47.92;30.48;;;15.80;99.90;;;;;;20760385;28;20147;-43
2023/10/10 02:35:27;;;;;;;47.17;29.88;;;15.70;99.90;;;;;;20760423;28;20049;-43
2023/10/10 02:45:28;;;;;;;45.47;27.45;;;15.80;99.90;;;;;;20765602;28;20053;-43
2023/10/10 02:55:35;;;;;;;47.25;29.42;;;15.80;99.90;;;;;;20757704;28;20107;-43
2023/10/10 03:05:50;;;;;;;47.70;31.60;;;15.90;99.90;;;;;;20755952;28;20124;-43
2023/10/10 03:15:55;;;;;;;45.67;31.80;;;15.90;99.90;;;;;;20755880;28;20073;-43
2023/10/10 03:36:04;;;;;;;44.17;30.02;;;15.90;99.90;;;;;;20762955;28;20037;-43
2023/10/10 05:29:19;;;;;;;61.97;39.30;;;15.50;99.90;;;;;;20769834;28;20041;-43
2023/10/10 05:39:22;;;;;;;52.20;36.78;;;15.50;99.90;;;;;;20760371;28;20037;-43
2023/10/10 05:49:23;;;;;;;55.40;37.03;;;15.40;99.90;;;;;;20761491;28;20545;-44
2023/10/10 05:59:23;;;;;;;58.17;37.87;;;15.30;99.90;;;;;;20759648;28;20485;-43
2023/10/10 06:09:27;;;;;;;63.70;41.53;;;15.20;99.90;;;;;;20750773;28;20099;-43
2023/10/10 06:19:28;;;;;;;64.20;41.50;;;15.20;99.90;;;;;;20751262;28;20128;-43
2023/10/10 06:29:34;;;;;;;58.70;38.65;;;15.10;99.90;;;;;;20760292;28;20852;-43
2023/10/10 06:39:35;;;;;;;57.78;38.13;;;15.00;99.90;;;;;;20767571;28;20034;-43
2023/10/10 06:49:43;;;;;;;59.75;38.90;;;15.10;99.90;;;;;;20789075;28;20788;-43
2023/10/10 06:59:43;;;;;;;58.25;37.72;;;15.10;99.90;;;;;;20785532;28;20038;-43
2023/10/10 07:09:44;;;;;;;60.83;41.40;;;15.20;99.90;;;;;;20786463;28;20045;-43
2023/10/10 07:21:04;;;;;;;60.25;38.55;;;15.30;99.90;;;;;;20789831;28;20065;-43
2023/10/10 07:50:22;;;;;;;53.53;36.97;;;15.50;99.90;;;;;;20803702;28;20041;-43
2023/10/10 08:00:35;;;;;;;64.28;40.47;;;15.60;99.90;;;;;;20799238;28;20056;-44
2023/10/10 08:10:39;;;;;;;62.22;41.22;;;15.80;99.90;;;;;;20804522;28;20053;-43
2023/10/10 08:30:42;;;;;;;56.00;37.88;;;16.20;90.70;;;;;;20798309;28;20056;-43
2023/10/10 08:40:43;;;;;;;49.58;34.30;;;16.30;68.60;;;;;;20800588;28;20386;-43
2023/10/10 08:50:47;;;;;;;53.55;36.90;;;16.50;50.90;;;;;;20799967;28;20067;-43
2023/10/10 09:00:48;;;;;;;51.10;36.83;;;16.60;78.60;;;;;;20801225;28;20045;-43
2023/10/10 09:10:53;;;;;;;52.72;37.53;;;16.80;58.00;;;;;;20799403;28;20034;-43
2023/10/10 09:21:17;;;;;;;55.40;37.63;;;17.20;35.60;;;;;;20797599;28;20038;-43
2023/10/10 09:31:26;;;;;;;46.38;33.92;;;17.40;35.80;;;;;;20798422;28;20507;-43
2023/10/10 10:01:59;;;;;;;37.58;29.20;;;18.40;1.00;;;;;;20795307;28;20401;-43
2023/10/10 10:12:04;;;;;;;43.10;31.10;;;18.70;1.00;;;;;;20793296;28;20111;-42
2023/10/10 10:22:08;;;;;;;42.50;30.40;;;18.90;1.00;;;;;;20791910;28;20049;-42
2023/10/10 10:32:12;;;;;;;40.13;29.15;;;19.20;1.00;;;;;;20793445;28;20049;-42
2023/10/10 10:42:17;;;;;;;35.13;25.30;;;19.40;1.00;;;;;;20792468;28;20136;-42
2023/10/10 10:52:43;;;;;;;34.42;24.67;;;19.90;1.00;;;;;;20791142;28;20056;-42
2023/10/10 11:02:49;;;;;;;32.47;23.15;;;20.30;1.00;;;;;;20792393;28;20037;-42
2023/10/10 11:12:50;;;;;;;28.50;21.57;;;20.80;1.00;;;;;;20787171;28;20128;-42
2023/10/10 11:22:54;;;;;;;27.27;20.58;;;21.30;1.00;;;;;;20792770;28;20037;-42
2023/10/10 11:33:16;;;;;;;29.58;20.35;;;21.80;1.00;;;;;;20788796;28;20042;-42
2023/10/10 11:43:19;;;;;;;28.25;19.85;;;21.70;1.00;;;;;;20787891;28;20141;-42
2023/10/10 11:53:24;;;;;;;29.80;21.13;;;21.10;1.00;;;;;;20789793;28;20037;-42
2023/10/10 12:13:44;;;;;;;23.55;17.67;;;22.30;1.00;;;;;;20785420;28;20308;-42
2023/10/10 12:23:47;;;;;;;24.10;16.65;;;23.00;1.00;;;;;;20799898;28;20044;-42
2023/10/10 12:33:48;;;;;;;24.05;15.80;;;23.30;1.00;;;;;;20798627;28;20494;-42
2023/10/10 12:43:50;;;;;;;21.65;16.30;;;23.40;1.00;;;;;;20802456;28;20065;-42
2023/10/10 12:53:59;;;;;;;19.40;14.27;;;23.00;1.00;;;;;;20799323;28;20037;-42
2023/10/10 13:04:07;;;;;;;23.63;14.82;;;23.00;1.00;;;;;;20802192;28;20037;-42
2023/10/10 13:14:15;;;;;;;20.13;13.30;;;23.20;1.00;;;;;;20797265;28;20037;-42
2023/10/10 13:24:15;;;;;;;22.88;15.02;;;23.60;1.00;;;;;;20797220;28;20554;-42
2023/10/10 13:34:22;;;;;;;24.58;15.52;;;22.70;1.00;;;;;;20798137;28;20057;-42
2023/10/10 13:44:22;;;;;;;22.67;13.90;;;21.90;1.00;;;;;;20798085;28;20061;-42
2023/10/10 13:54:23;;;;;;;22.67;15.45;;;22.00;1.00;;;;;;20795756;28;20121;-42
2023/10/10 14:04:26;;;;;;;24.38;15.10;;;22.30;1.00;;;;;;20795999;28;20042;-43
2023/10/10 14:14:27;;;;;;;24.20;13.85;;;22.90;1.00;;;;;;20793966;28;20128;-42
2023/10/10 14:24:30;;;;;;;16.33;10.00;;;23.40;1.00;;;;;;20794186;28;20044;-42
2023/10/10 14:34:38;;;;;;;17.40;10.23;;;23.50;1.00;;;;;;20793003;28;20049;-42
2023/10/10 14:44:40;;;;;;;15.52;10.00;;;23.20;1.00;;;;;;20787766;28;20204;-42
2023/10/10 14:54:48;;;;;;;17.85;10.35;;;22.70;1.00;;;;;;20761906;28;20045;-42
2023/10/10 15:04:50;;;;;;;14.93;9.10;;;22.40;1.00;;;;;;20767510;28;20106;-42
2023/10/10 15:14:52;;;;;;;17.05;10.65;;;22.10;1.00;;;;;;20767668;28;20203;-42
2023/10/10 15:24:55;;;;;;;17.23;11.15;;;21.80;1.00;;;;;;20762545;28;20034;-42
2023/10/10 15:34:56;;;;;;;16.48;11.63;;;21.70;1.00;;;;;;20760833;28;20923;-42
2023/10/10 15:44:56;;;;;;;15.63;10.35;;;21.60;1.00;;;;;;20763972;28;20121;-42
2023/10/10 15:54:57;;;;;;;18.48;10.75;;;21.40;1.00;;;;;;20765043;28;20041;-42
2023/10/10 16:05:00;;;;;;;14.20;9.63;;;21.20;1.00;;;;;;20782920;28;20042;-42
2023/10/10 16:15:00;;;;;;;15.77;10.27;;;21.10;1.00;;;;;;20794264;28;20044;-42
2023/10/10 16:25:03;;;;;;;15.80;11.52;;;20.90;1.00;;;;;;20780760;28;20057;-42
2023/10/10 16:35:05;;;;;;;16.65;11.18;;;20.80;1.00;;;;;;20781675;28;20497;-42
2023/10/10 16:45:10;;;;;;;21.38;12.48;;;20.60;1.00;;;;;;20773602;28;20127;-42
2023/10/10 16:55:10;;;;;;;19.85;11.32;;;20.60;1.00;;;;;;20758703;28;20052;-42
2023/10/10 17:05:11;;;;;;;17.02;9.98;;;20.60;1.00;;;;;;20765256;28;20378;-42
2023/10/10 17:15:21;;;;;;;18.80;10.32;;;20.50;1.00;;;;;;20760876;28;20505;-42
2023/10/10 17:25:21;;;;;;;13.73;7.88;;;20.40;1.00;;;;;;20748159;28;20575;-42
2023/10/10 17:35:22;;;;;;;16.13;8.70;;;20.30;1.00;;;;;;20751310;28;20136;-42
2023/10/10 17:45:24;;;;;;;13.90;8.27;;;20.10;1.00;;;;;;20751619;28;20080;-42
2023/10/10 17:55:26;;;;;;;11.98;7.05;;;20.10;1.00;;;;;;20766394;28;20445;-42
2023/10/10 18:05:33;;;;;;;11.15;7.05;;;20.10;1.00;;;;;;20727394;28;20172;-41
2023/10/10 18:15:41;;;;;;;14.93;6.10;;;20.00;1.00;;;;;;20702659;28;20456;-43
2023/10/10 18:25:42;;;;;;;12.00;6.47;;;19.80;1.00;;;;;;20659103;28;20151;-42
2023/10/10 18:35:42;;;;;;;12.63;5.60;;;19.70;1.00;;;;;;20684840;28;20033;-42
2023/10/10 18:45:43;;;;;;;9.93;4.55;;;19.60;1.00;;;;;;20668284;28;20088;-42
2023/10/10 18:55:49;;;;;;;9.70;4.93;;;19.40;1.00;;;;;;20669752;28;20254;-42
2023/10/10 19:05:53;;;;;;;8.45;4.22;;;19.40;1.00;;;;;;20614995;28;20333;-42
2023/10/10 19:15:54;;;;;;;10.00;4.35;;;19.30;1.00;;;;;;20665434;28;20034;-42
2023/10/10 19:25:55;;;;;;;7.22;4.00;;;19.40;1.00;;;;;;20674348;28;20053;-42
2023/10/10 19:35:56;;;;;;;10.73;3.90;;;19.20;1.00;;;;;;20678430;28;20725;-42
2023/10/10 19:45:56;;;;;;;7.60;3.35;;;19.20;1.00;;;;;;20681231;28;20054;-42
2023/10/10 19:55:57;;;;;;;9.88;4.70;;;19.10;1.00;;;;;;20667444;28;20038;-42
2023/10/10 20:05:58;;;;;;;10.25;4.15;;;19.00;1.00;;;;;;20671418;28;20127;-42
2023/10/10 20:16:02;;;;;;;8.32;4.25;;;18.80;1.00;;;;;;20667703;28;20561;-42
2023/10/10 20:26:08;;;;;;;8.73;4.00;;;18.60;1.00;;;;;;20664025;28;20121;-42
2023/10/10 23:33:31;;;;;;;21.83;14.13;;;17.40;3.10;;;;;;20810950;23;20314;-40
2023/10/10 23:43:36;;;;;;;24.97;13.90;;;17.40;8.10;;;;;;20584545;28;20061;-40
2023/10/10 23:53:37;;;;;;;26.13;14.25;;;17.30;13.40;;;;;;20612198;23;20053;-41
